Yellowstone National Park, WY

3:31 PM MST on March 05, 2015 (GMT -0700)
RAWS GREBE WY US | Change Station
CLOSE
Current Station
Personal Weather Station
Location: Yellowstone National Park, WY
Elevation: 7899 ft
Nearby Weather Stations

Elev 7899 ft 44.72 °N, 110.51 °W | Updated 42 minutes ago

Partly Cloudy
Partly Cloudy
32 °F
Feels Like 26 °F
N
7
Wind Variable Wind from West
Gusts 19.0 mph

Today
High -- | Low -- °F
--% Chance of Precip.
Yesterday
High -- | Low -- °F
Precip. -- in
6:52 AM 6:14 PM
Full, 100% visible
Pressure 30.48 in
Visibility -9999.0 miles
Clouds
Windchill 26 °F
Dew Point 7 °F
Humidity 34%
Rainfall in
Snow Depth Not available.
UV Not available.
Pollen .30 out of 12
Air Quality Not available.
Flu Activity Not available.
METAR KP60 052156Z AUTO 27007KT 230V300 01/M16 A3027 RMK AO1 SLP322 T00061156

More Conditions Fewer Conditions

Pressure 30.48 in
Visibility -9999.0 miles
Clouds
Windchill 26 °F
Dew Point 7 °F
Humidity 34%
Rainfall in
Snow Depth Not available.
UV Not available.
Pollen .30 out of 12
Air Quality Not available.
Flu Activity Not available.
METAR KP60 052156Z AUTO 27007KT 230V300 01/M16 A3027 RMK AO1 SLP322 T00061156

More Conditions Fewer Conditions

10-Day Weather Forecast

Almanac

Astronomy

Mar. 05, 2015 Rise Set
Actual Time
Civil Twilight
Nautical Twilight
Astronomical Twilight
Moon
Length of Visible Light
Length of Day
Tomorrow will be .
, % of the Moon is Illuminated

Today's Extremes

State Highs State Lows

Community

WunderPhotos

Upload Photos

1,803,020 photos uploaded!

WunderBlogs® & News

Nearby

Air Quality

  Air Quality AQ Index Pollutant
Not available.

Snow Depth

Station Depth Elevation

Earthquake Activity

City Distance Mag. Time & Date
Minimum magnitude displayed is 2.5.

Coastal Water Temperatures

Place Temperature

Nearby Weather Stations